Time;durP1;ratioP1;P1;durP2;ratioP2;P2;SDS_P1;SDS_P2;PMS_P1;PMS_P2;Temp;Humidity;BMP_temperature;BMP_pressure;BME280_temperature;BME280_humidity;BME280_pressure;Samples;Min_cycle;Max_cycle;Signal;HPM_P1;HPM_P2
2023/10/20 00:00:16;;;;;;;14.73;9.63;;;14.80;99.90;;;;;;5050560;28;20029;-75
2023/10/20 00:02:42;;;;;;;12.20;9.55;;;14.80;99.90;;;;;;5052442;28;20047;-74
2023/10/20 00:05:10;;;;;;;12.82;9.90;;;14.80;99.90;;;;;;5031804;28;20010;-76
2023/10/20 00:07:36;;;;;;;13.27;8.85;;;14.80;99.90;;;;;;5050628;28;20010;-75
2023/10/20 00:10:08;;;;;;;11.48;8.75;;;14.80;99.90;;;;;;5050281;28;20026;-75
2023/10/20 00:12:38;;;;;;;11.02;8.93;;;14.80;99.90;;;;;;5033548;28;20038;-75
2023/10/20 00:15:09;;;;;;;13.98;9.65;;;14.80;99.90;;;;;;5049108;28;20030;-75
2023/10/20 00:17:35;;;;;;;13.57;9.05;;;14.80;99.90;;;;;;5052935;28;20029;-74
2023/10/20 00:20:03;;;;;;;12.80;9.95;;;14.80;99.90;;;;;;5050723;28;20025;-75
2023/10/20 00:22:30;;;;;;;14.05;8.52;;;14.80;99.90;;;;;;5051478;28;20033;-75
2023/10/20 00:24:58;;;;;;;13.48;9.40;;;14.90;99.90;;;;;;5050131;28;20026;-75
2023/10/20 00:27:25;;;;;;;14.52;9.98;;;14.80;99.90;;;;;;5052006;28;20075;-75
2023/10/20 00:29:54;;;;;;;15.30;10.40;;;14.80;99.90;;;;;;5051094;28;20029;-75
2023/10/20 00:32:19;;;;;;;15.10;9.80;;;14.90;99.90;;;;;;5051586;28;20030;-75
2023/10/20 00:34:48;;;;;;;13.52;9.70;;;14.90;99.90;;;;;;5038398;28;20029;-75
2023/10/20 00:37:14;;;;;;;17.98;10.27;;;14.80;99.90;;;;;;5036531;28;20051;-74
2023/10/20 00:39:39;;;;;;;14.10;10.23;;;14.90;99.90;;;;;;5050981;28;20026;-75
2023/10/20 00:42:05;;;;;;;13.20;10.27;;;14.90;99.90;;;;;;5033793;28;20045;-75
2023/10/20 00:44:31;;;;;;;14.85;11.30;;;14.90;99.90;;;;;;5049089;28;20028;-75
2023/10/20 00:46:57;;;;;;;14.50;10.27;;;14.90;99.90;;;;;;5050257;28;20026;-75
2023/10/20 00:49:23;;;;;;;12.95;10.02;;;14.90;99.90;;;;;;5035204;28;20063;-75
2023/10/20 00:51:52;;;;;;;14.85;10.15;;;14.90;99.90;;;;;;5032256;28;20026;-75
2023/10/20 00:54:18;;;;;;;15.40;11.13;;;14.90;99.90;;;;;;5033483;28;20021;-74
2023/10/20 00:56:44;;;;;;;15.73;10.27;;;14.90;99.90;;;;;;5031292;28;20039;-76
2023/10/20 00:59:12;;;;;;;14.88;10.45;;;14.90;99.90;;;;;;5033225;28;20026;-76
2023/10/20 01:01:38;;;;;;;14.85;11.38;;;14.90;99.90;;;;;;5031242;28;20122;-76
2023/10/20 01:04:06;;;;;;;14.65;10.68;;;14.90;99.90;;;;;;5034846;28;20021;-76
2023/10/20 01:06:36;;;;;;;17.27;12.10;;;14.90;99.90;;;;;;5051335;28;20092;-75
2023/10/20 01:09:04;;;;;;;19.42;11.18;;;14.90;99.90;;;;;;5048594;28;20014;-75
2023/10/20 01:11:30;;;;;;;14.40;10.52;;;14.90;99.90;;;;;;5033449;28;20021;-76
2023/10/20 01:13:56;;;;;;;21.55;11.77;;;14.90;99.90;;;;;;5035674;28;20040;-75
2023/10/20 01:16:23;;;;;;;14.07;10.93;;;14.90;99.90;;;;;;5043105;28;20169;-74
2023/10/20 01:18:51;;;;;;;14.13;10.88;;;14.80;99.90;;;;;;5038540;28;20095;-75
2023/10/20 01:21:19;;;;;;;17.17;11.63;;;14.80;99.90;;;;;;5051527;28;20012;-75
2023/10/20 01:23:51;;;;;;;17.20;12.07;;;14.80;99.90;;;;;;5035653;28;20045;-74
2023/10/20 01:26:17;;;;;;;18.25;11.52;;;14.80;99.90;;;;;;5031539;28;20034;-75
2023/10/20 01:28:45;;;;;;;16.00;10.55;;;14.90;99.90;;;;;;5048402;28;20034;-75
2023/10/20 01:31:13;;;;;;;12.40;9.52;;;14.90;99.90;;;;;;5033218;28;20025;-75
2023/10/20 01:33:40;;;;;;;18.20;11.55;;;14.90;99.90;;;;;;5034507;28;20033;-76
2023/10/20 01:36:06;;;;;;;13.90;10.27;;;14.90;99.90;;;;;;5049448;28;20082;-75
2023/10/20 01:38:34;;;;;;;12.48;9.85;;;14.90;99.90;;;;;;5033933;28;20032;-75
2023/10/20 01:41:02;;;;;;;15.05;10.20;;;14.90;99.90;;;;;;5048709;28;20024;-75
2023/10/20 01:43:28;;;;;;;15.25;10.18;;;15.00;99.90;;;;;;5033531;28;20068;-75
2023/10/20 01:45:54;;;;;;;13.02;9.63;;;14.90;99.90;;;;;;5048920;28;20018;-75
2023/10/20 01:48:20;;;;;;;16.15;10.50;;;14.90;99.90;;;;;;5032834;28;20033;-74
2023/10/20 01:50:46;;;;;;;12.25;9.68;;;14.90;99.90;;;;;;5050926;28;20065;-75
2023/10/20 01:53:13;;;;;;;14.40;9.88;;;14.90;99.90;;;;;;5037649;28;20043;-75
2023/10/20 01:55:49;;;;;;;13.57;10.23;;;14.90;99.90;;;;;;5030300;28;20189;-75
2023/10/20 01:58:18;;;;;;;12.32;9.60;;;15.00;99.90;;;;;;5048799;28;20034;-75
2023/10/20 02:00:50;;;;;;;13.82;10.50;;;14.90;99.90;;;;;;5030060;28;20056;-74
2023/10/20 02:03:16;;;;;;;13.35;9.15;;;14.90;99.90;;;;;;5048756;28;20048;-74
2023/10/20 02:05:44;;;;;;;14.20;9.90;;;15.00;99.90;;;;;;5031681;28;20025;-75
2023/10/20 02:08:10;;;;;;;16.42;10.32;;;14.90;99.90;;;;;;5049372;28;20014;-74
2023/10/20 02:10:36;;;;;;;14.30;10.02;;;14.90;99.90;;;;;;5033832;28;20089;-75
2023/10/20 02:13:03;;;;;;;13.50;9.55;;;14.90;99.90;;;;;;5034784;28;20033;-76
2023/10/20 02:15:31;;;;;;;14.93;9.50;;;14.90;99.90;;;;;;5049877;28;20017;-74
2023/10/20 02:17:56;;;;;;;14.10;9.32;;;14.90;99.90;;;;;;5047961;28;20071;-75
2023/10/20 02:20:27;;;;;;;12.27;9.20;;;14.90;99.90;;;;;;5030014;28;20013;-75
2023/10/20 02:22:53;;;;;;;13.00;9.05;;;14.90;99.90;;;;;;5032079;28;20045;-74
2023/10/20 02:25:22;;;;;;;13.95;9.48;;;14.90;99.90;;;;;;5030831;28;20033;-75
2023/10/20 02:27:47;;;;;;;13.52;8.93;;;14.90;99.90;;;;;;5047754;28;20040;-76
2023/10/20 02:30:15;;;;;;;12.43;9.30;;;14.90;99.90;;;;;;5030637;28;20077;-76
2023/10/20 02:32:41;;;;;;;10.85;8.02;;;14.90;99.90;;;;;;5034627;28;20052;-75
2023/10/20 02:35:11;;;;;;;14.77;7.93;;;14.90;99.90;;;;;;5048817;28;20022;-75
2023/10/20 02:37:36;;;;;;;13.30;7.50;;;14.90;99.90;;;;;;5028313;28;20088;-75
2023/10/20 02:40:04;;;;;;;12.25;8.52;;;14.90;99.90;;;;;;5046938;28;20301;-76
2023/10/20 02:42:31;;;;;;;14.05;7.53;;;14.90;99.90;;;;;;5044924;28;20064;-75
2023/10/20 02:44:57;;;;;;;11.15;7.30;;;14.90;99.90;;;;;;5024507;28;20015;-75
2023/10/20 02:47:25;;;;;;;12.25;7.82;;;14.90;99.90;;;;;;5026471;28;20089;-75
2023/10/20 02:49:55;;;;;;;11.23;7.85;;;14.90;99.90;;;;;;5043131;28;20105;-75
2023/10/20 02:52:24;;;;;;;13.95;8.30;;;14.80;99.90;;;;;;5044224;28;20018;-75
2023/10/20 02:54:53;;;;;;;9.73;7.15;;;14.90;99.90;;;;;;5026537;28;20022;-75
2023/10/20 02:57:22;;;;;;;7.28;6.03;;;14.90;99.90;;;;;;5030574;28;20017;-75
2023/10/20 02:59:49;;;;;;;9.80;6.32;;;14.80;99.90;;;;;;5042390;28;20033;-75
2023/10/20 03:02:15;;;;;;;9.45;6.38;;;14.90;99.90;;;;;;5047321;28;20057;-74
2023/10/20 03:04:41;;;;;;;8.27;5.45;;;14.90;99.90;;;;;;5028801;28;20029;-76
2023/10/20 03:07:08;;;;;;;7.07;5.30;;;14.90;99.90;;;;;;5025953;28;20030;-74
2023/10/20 03:09:35;;;;;;;11.65;5.53;;;14.90;99.90;;;;;;5027258;28;20029;-75
2023/10/20 03:12:01;;;;;;;8.02;5.85;;;14.90;99.90;;;;;;5046640;28;20022;-75
2023/10/20 03:14:26;;;;;;;12.63;5.30;;;14.80;99.90;;;;;;5048316;28;20022;-75
2023/10/20 03:16:54;;;;;;;9.90;5.45;;;14.90;99.90;;;;;;5029677;28;20038;-75
2023/10/20 03:19:20;;;;;;;6.85;4.47;;;14.90;99.90;;;;;;5051276;28;20025;-75
2023/10/20 03:21:46;;;;;;;7.68;5.18;;;14.90;99.90;;;;;;5038995;28;20036;-75
2023/10/20 03:24:16;;;;;;;8.35;4.45;;;14.90;99.90;;;;;;5032854;28;20232;-75
2023/10/20 03:26:42;;;;;;;8.25;4.57;;;14.90;99.90;;;;;;5034764;28;20030;-75
2023/10/20 03:29:08;;;;;;;6.03;4.68;;;14.90;99.90;;;;;;5036680;28;20017;-76
2023/10/20 03:31:37;;;;;;;5.80;4.75;;;14.90;99.90;;;;;;5040060;28;20053;-75
2023/10/20 03:34:11;;;;;;;7.97;4.47;;;14.90;99.90;;;;;;5034390;28;20036;-75
2023/10/20 03:36:38;;;;;;;8.40;4.45;;;14.90;99.90;;;;;;5054753;28;20037;-75
2023/10/20 03:39:19;;;;;;;8.18;4.95;;;15.00;99.90;;;;;;5049529;28;20025;-75
2023/10/20 03:41:45;;;;;;;5.38;4.30;;;15.00;99.90;;;;;;5036180;28;20030;-75
2023/10/20 03:44:16;;;;;;;4.70;3.88;;;14.90;99.90;;;;;;5032204;28;20053;-76
2023/10/20 03:46:56;;;;;;;6.53;4.30;;;14.90;99.90;;;;;;5048339;28;20033;-74
2023/10/20 03:49:22;;;;;;;6.13;4.50;;;15.00;99.90;;;;;;5053234;28;20044;-76
2023/10/20 03:51:51;;;;;;;6.03;4.72;;;15.00;99.90;;;;;;5036082;28;20017;-75
2023/10/20 03:54:24;;;;;;;7.03;4.85;;;14.90;99.90;;;;;;5052277;28;20022;-75
2023/10/20 03:56:56;;;;;;;5.75;4.43;;;15.00;99.90;;;;;;5035495;28;20025;-75
2023/10/20 03:59:21;;;;;;;8.45;5.15;;;14.90;99.90;;;;;;5031830;28;20029;-75
2023/10/20 04:01:47;;;;;;;6.63;4.63;;;15.00;99.90;;;;;;5037508;28;20033;-75
2023/10/20 04:04:13;;;;;;;8.68;5.63;;;15.00;99.90;;;;;;5033952;28;20032;-75
2023/10/20 04:06:39;;;;;;;6.68;4.53;;;14.90;99.90;;;;;;5035344;28;20018;-76
2023/10/20 04:09:09;;;;;;;8.02;4.18;;;15.00;99.90;;;;;;5035005;28;20045;-75
2023/10/20 04:11:35;;;;;;;7.38;4.82;;;15.00;99.90;;;;;;5048971;28;20049;-75
2023/10/20 04:14:08;;;;;;;7.47;4.60;;;15.00;99.90;;;;;;5031913;28;20031;-74
2023/10/20 04:16:39;;;;;;;6.45;5.05;;;15.00;99.90;;;;;;5048320;28;20128;-75
2023/10/20 04:19:15;;;;;;;7.13;4.40;;;15.00;99.90;;;;;;5032155;28;20044;-75
2023/10/20 04:21:45;;;;;;;5.28;4.43;;;15.00;99.90;;;;;;5032019;28;20037;-75
2023/10/20 04:24:11;;;;;;;7.75;5.47;;;15.00;99.90;;;;;;5032646;28;20033;-75
2023/10/20 04:26:44;;;;;;;7.85;5.20;;;15.00;99.90;;;;;;5048632;28;20060;-76
2023/10/20 04:51:28;;;;;;;9.95;6.43;;;14.90;99.90;;;;;;4975427;28;20031;-75
2023/10/20 04:53:55;;;;;;;7.00;5.80;;;14.90;99.90;;;;;;5037979;28;20055;-74
2023/10/20 04:56:32;;;;;;;5.85;4.82;;;14.90;99.90;;;;;;5052270;28;20036;-76
2023/10/20 04:59:04;;;;;;;7.40;5.47;;;14.90;99.90;;;;;;5035506;28;20032;-75
2023/10/20 05:01:40;;;;;;;7.68;5.25;;;14.90;99.90;;;;;;5036550;28;20017;-75
2023/10/20 05:04:14;;;;;;;7.18;5.13;;;14.90;99.90;;;;;;5031214;28;20064;-75
2023/10/20 05:06:42;;;;;;;6.72;5.03;;;14.90;99.90;;;;;;5051435;28;20044;-75
2023/10/20 05:09:14;;;;;;;9.05;5.35;;;14.90;99.90;;;;;;5036647;28;20044;-74
2023/10/20 05:11:44;;;;;;;8.32;5.00;;;14.90;99.90;;;;;;5051023;28;20089;-74
2023/10/20 05:14:09;;;;;;;7.85;5.50;;;14.90;99.90;;;;;;5036793;28;20029;-74
2023/10/20 05:16:40;;;;;;;7.10;4.97;;;14.90;99.90;;;;;;5051374;28;20042;-75
2023/10/20 05:19:06;;;;;;;7.93;5.50;;;14.90;99.90;;;;;;5047671;28;20022;-75
2023/10/20 05:21:34;;;;;;;7.93;4.75;;;14.90;99.90;;;;;;5051352;28;20033;-75
2023/10/20 05:24:03;;;;;;;6.97;4.28;;;14.80;99.90;;;;;;5049170;28;20029;-74
2023/10/20 05:26:32;;;;;;;8.00;4.40;;;14.80;99.90;;;;;;5049754;28;20053;-77
2023/10/20 05:29:07;;;;;;;6.53;3.80;;;14.80;99.90;;;;;;5032163;28;20028;-74
2023/10/20 05:31:34;;;;;;;6.38;4.53;;;14.80;99.90;;;;;;5031765;28;20053;-74
2023/10/20 05:34:03;;;;;;;5.60;4.40;;;14.80;99.90;;;;;;5035992;28;20033;-74
2023/10/20 05:36:32;;;;;;;8.13;4.07;;;14.90;99.90;;;;;;5050493;28;20089;-74
2023/10/20 05:39:00;;;;;;;6.90;3.97;;;14.80;99.90;;;;;;5050006;28;20037;-74
2023/10/20 05:41:29;;;;;;;7.35;4.43;;;14.80;99.90;;;;;;5031786;28;20016;-75
2023/10/20 05:43:55;;;;;;;5.70;3.83;;;14.80;99.90;;;;;;5034584;28;20041;-74
2023/10/20 05:46:21;;;;;;;5.45;3.83;;;14.80;99.90;;;;;;5035372;28;20017;-74
2023/10/20 05:48:49;;;;;;;8.48;4.43;;;14.80;99.90;;;;;;5048270;28;20071;-75
2023/10/20 05:51:17;;;;;;;155.80;129.13;;;14.80;99.90;;;;;;5048650;28;20018;-75
2023/10/20 05:53:43;;;;;;;24.15;16.42;;;14.70;99.90;;;;;;5030101;28;20040;-75
2023/10/20 05:56:09;;;;;;;13.30;9.30;;;14.70;99.90;;;;;;5050778;28;21122;-74
2023/10/20 05:58:34;;;;;;;7.68;5.72;;;14.70;99.90;;;;;;5033576;28;20021;-74
2023/10/20 06:01:09;;;;;;;7.35;5.43;;;14.80;99.90;;;;;;5034786;28;20021;-74
2023/10/20 06:03:35;;;;;;;11.52;5.40;;;14.70;99.90;;;;;;5031749;28;20044;-75
2023/10/20 06:06:03;;;;;;;7.35;4.88;;;14.70;99.90;;;;;;5043396;28;20142;-76
2023/10/20 06:08:33;;;;;;;6.30;4.00;;;14.70;99.90;;;;;;5051019;28;20017;-74
2023/10/20 06:11:07;;;;;;;6.55;4.20;;;14.60;99.90;;;;;;5031001;28;20029;-75
2023/10/20 06:13:35;;;;;;;6.95;4.68;;;14.70;99.90;;;;;;5046492;28;20025;-75
2023/10/20 06:16:08;;;;;;;8.82;5.00;;;14.70;99.90;;;;;;5051659;28;20056;-74
2023/10/20 06:18:38;;;;;;;8.18;5.20;;;14.70;99.90;;;;;;5033520;28;20033;-74
2023/10/20 06:21:04;;;;;;;6.50;4.97;;;14.70;99.90;;;;;;5036796;28;20107;-75
2023/10/20 06:23:31;;;;;;;10.75;4.35;;;14.70;99.90;;;;;;5048142;28;20037;-75
2023/10/20 06:25:57;;;;;;;8.52;4.72;;;14.70;99.90;;;;;;5031525;28;20112;-75
2023/10/20 06:28:26;;;;;;;8.65;4.90;;;14.70;99.90;;;;;;5049669;28;20026;-75
2023/10/20 06:30:53;;;;;;;6.95;4.78;;;14.70;99.90;;;;;;5029425;28;20017;-75
2023/10/20 06:33:18;;;;;;;6.93;5.07;;;14.70;99.90;;;;;;5033149;28;20098;-75
2023/10/20 06:35:51;;;;;;;7.47;5.07;;;14.70;99.90;;;;;;5050649;28;20033;-75
2023/10/20 06:41:08;;;;;;;26.55;6.65;;;14.70;99.90;;;;;;5049178;28;20064;-75
2023/10/20 06:43:34;;;;;;;11.20;6.18;;;14.70;99.90;;;;;;5031047;28;20097;-75
2023/10/20 06:46:00;;;;;;;12.00;7.85;;;14.60;99.90;;;;;;5035315;28;20052;-77
2023/10/20 06:48:31;;;;;;;12.68;6.95;;;14.60;99.90;;;;;;5040093;28;20055;-74
2023/10/20 06:51:00;;;;;;;12.10;6.70;;;14.60;99.90;;;;;;5037544;28;20029;-74
2023/10/20 06:53:25;;;;;;;15.60;7.00;;;14.60;99.90;;;;;;5052890;28;20045;-75
2023/10/20 06:55:51;;;;;;;20.00;7.97;;;14.60;99.90;;;;;;5049834;28;20105;-75
2023/10/20 06:58:17;;;;;;;16.05;7.45;;;14.60;99.90;;;;;;5039044;28;20025;-75
2023/10/20 07:00:47;;;;;;;14.75;8.38;;;;;;;;;;5034673;28;20040;-75
2023/10/20 07:03:13;;;;;;;16.60;9.00;;;;;;;;;;5051205;28;20037;-75
2023/10/20 07:05:42;;;;;;;18.23;8.75;;;;;;;;;;5035980;28;20049;-75
2023/10/20 07:08:08;;;;;;;15.40;9.23;;;;;;;;;;5039436;28;20013;-76
2023/10/20 07:10:38;;;;;;;24.95;10.38;;;;;;;;;;5051603;28;20018;-75
2023/10/20 07:13:10;;;;;;;15.48;8.52;;;;;;;;;;5037452;28;20037;-74
2023/10/20 07:15:37;;;;;;;17.98;9.73;;;;;;;;;;5046238;28;20052;-75
2023/10/20 07:18:04;;;;;;;16.33;9.73;;;;;;;;;;5039166;28;20029;-75
2023/10/20 07:20:30;;;;;;;20.10;10.48;;;;;;;;;;5036447;28;20021;-74
2023/10/20 07:22:56;;;;;;;23.38;12.88;;;;;;;;;;5039351;28;20052;-74
2023/10/20 07:25:27;;;;;;;21.77;10.32;;;;;;;;;;5052398;28;20026;-75
2023/10/20 07:27:54;;;;;;;19.02;11.38;;;;;;;;;;5038397;28;20017;-74
2023/10/20 07:30:20;;;;;;;22.25;11.80;;;;;;;;;;5046080;28;20025;-73
2023/10/20 07:32:46;;;;;;;22.20;11.82;;;;;;;;;;5035139;28;20052;-75
2023/10/20 07:35:12;;;;;;;26.85;13.00;;;;;;;;;;5035022;28;20092;-75
2023/10/20 07:37:38;;;;;;;25.42;11.88;;;;;;;;;;5052495;28;20025;-74
2023/10/20 07:40:07;;;;;;;23.25;12.70;;;;;;;;;;5045247;28;20048;-74
2023/10/20 07:42:33;;;;;;;24.27;12.88;;;;;;;;;;5045864;28;20029;-74
2023/10/20 07:45:00;;;;;;;21.33;12.55;;;;;;;;;;5050747;28;20093;-74
2023/10/20 07:47:26;;;;;;;34.15;13.70;;;;;;;;;;5050988;28;20033;-74
2023/10/20 07:49:52;;;;;;;23.55;12.50;;;;;;;;;;5053275;28;20032;-75
2023/10/20 07:52:19;;;;;;;25.77;13.85;;;;;;;;;;5032202;28;20005;-74
2023/10/20 07:54:45;;;;;;;26.98;13.95;;;;;;;;;;5033813;28;20026;-74
2023/10/20 07:57:13;;;;;;;27.48;13.52;;;14.60;99.90;;;;;;5033542;28;20117;-74
2023/10/20 07:59:38;;;;;;;22.52;12.88;;;14.60;99.90;;;;;;5031875;28;20054;-74
2023/10/20 08:02:05;;;;;;;29.25;13.98;;;14.70;99.90;;;;;;5051903;28;20041;-75
2023/10/20 08:04:36;;;;;;;32.22;14.68;;;14.60;99.90;;;;;;5049565;28;20038;-73
2023/10/20 08:07:04;;;;;;;31.88;14.65;;;14.70;99.90;;;;;;5050227;28;20028;-74
2023/10/20 08:09:32;;;;;;;30.25;14.40;;;14.70;99.90;;;;;;5050691;28;20031;-74
2023/10/20 08:11:59;;;;;;;27.40;14.13;;;14.70;99.90;;;;;;5031215;28;20030;-74
2023/10/20 08:14:27;;;;;;;26.95;15.50;;;14.70;99.90;;;;;;5048501;28;20049;-74
2023/10/20 08:16:56;;;;;;;27.73;14.68;;;14.70;99.90;;;;;;5034759;28;20098;-74
2023/10/20 08:19:25;;;;;;;27.33;14.52;;;14.80;99.90;;;;;;5049837;28;20032;-75
2023/10/20 08:21:50;;;;;;;28.73;14.02;;;14.80;99.90;;;;;;5050538;28;20036;-75
2023/10/20 08:24:19;;;;;;;24.55;13.82;;;14.80;99.90;;;;;;5034391;28;20056;-74
2023/10/20 08:26:44;;;;;;;29.67;14.80;;;14.80;99.90;;;;;;5030707;28;20040;-74
2023/10/20 08:29:12;;;;;;;26.27;13.93;;;14.80;99.90;;;;;;5050080;28;20044;-74
2023/10/20 08:31:39;;;;;;;27.02;14.25;;;14.80;99.90;;;;;;5033920;28;20025;-76
2023/10/20 08:34:05;;;;;;;23.33;12.65;;;14.90;99.90;;;;;;5032487;28;20048;-75
2023/10/20 08:36:31;;;;;;;24.65;14.38;;;14.90;99.90;;;;;;5033342;28;20029;-74
2023/10/20 08:39:01;;;;;;;25.02;14.02;;;14.90;99.90;;;;;;5036206;28;20017;-75
2023/10/20 08:41:29;;;;;;;24.42;14.25;;;14.90;99.90;;;;;;5052674;28;20014;-75
2023/10/20 08:43:57;;;;;;;31.75;13.00;;;14.90;99.90;;;;;;5024998;28;20033;-74
2023/10/20 08:46:29;;;;;;;24.60;13.55;;;14.90;99.90;;;;;;5029782;28;20072;-74
2023/10/20 08:48:56;;;;;;;30.13;13.15;;;14.90;99.90;;;;;;5044357;28;21325;-76
2023/10/20 08:51:26;;;;;;;38.45;15.25;;;14.90;99.90;;;;;;5031024;28;20048;-74
2023/10/20 08:53:51;;;;;;;31.63;13.70;;;14.90;99.90;;;;;;5026819;28;20017;-74
2023/10/20 08:56:19;;;;;;;40.28;15.85;;;14.80;99.90;;;;;;5027024;28;20025;-75
2023/10/20 08:58:46;;;;;;;26.13;15.23;;;14.80;99.90;;;;;;5043780;28;20069;-75
2023/10/20 09:01:12;;;;;;;33.00;15.20;;;14.80;99.90;;;;;;5024385;28;20022;-74
2023/10/20 09:03:48;;;;;;;32.00;14.93;;;14.80;99.90;;;;;;5029496;28;20029;-74
2023/10/20 09:06:16;;;;;;;30.63;14.45;;;14.80;99.90;;;;;;5048907;28;20652;-74
2023/10/20 09:08:43;;;;;;;41.45;15.40;;;14.80;99.90;;;;;;5044499;28;20031;-74
2023/10/20 09:11:10;;;;;;;40.28;15.27;;;14.80;99.90;;;;;;5029634;28;20014;-74
2023/10/20 09:13:38;;;;;;;27.85;14.00;;;14.80;99.90;;;;;;5036762;28;20037;-73
2023/10/20 09:16:09;;;;;;;26.75;14.10;;;14.80;99.90;;;;;;5035313;28;20047;-75
2023/10/20 09:18:50;;;;;;;27.80;12.73;;;14.80;99.90;;;;;;5049510;28;20145;-75
2023/10/20 09:21:20;;;;;;;20.58;12.32;;;14.80;99.90;;;;;;5049717;28;20033;-74
2023/10/20 09:24:01;;;;;;;24.48;13.80;;;14.80;99.90;;;;;;5048509;28;20029;-74
2023/10/20 09:26:30;;;;;;;30.17;13.63;;;14.70;99.90;;;;;;5032500;28;20026;-75
2023/10/20 09:28:56;;;;;;;24.17;13.85;;;14.80;99.90;;;;;;5030634;28;20078;-74
2023/10/20 09:31:24;;;;;;;24.67;12.70;;;14.80;99.90;;;;;;5048961;28;20028;-75
2023/10/20 09:33:50;;;;;;;32.95;13.95;;;14.80;99.90;;;;;;5032462;28;20022;-74
2023/10/20 09:36:17;;;;;;;33.88;15.55;;;14.80;99.90;;;;;;5050809;28;20057;-74
2023/10/20 09:38:45;;;;;;;33.22;14.85;;;14.80;99.90;;;;;;5047136;28;20021;-74
2023/10/20 09:41:20;;;;;;;30.40;13.85;;;14.90;99.90;;;;;;5052351;28;20010;-75
2023/10/20 09:43:55;;;;;;;28.80;14.40;;;14.90;99.90;;;;;;5049120;28;20049;-75
2023/10/20 09:46:53;;;;;;;26.42;14.27;;;14.90;99.90;;;;;;5050528;28;20028;-74
2023/10/20 09:49:23;;;;;;;23.38;13.10;;;14.90;99.90;;;;;;5031222;28;20057;-75
2023/10/20 09:51:50;;;;;;;32.78;14.05;;;14.90;99.90;;;;;;5029928;28;20025;-76
2023/10/20 09:54:19;;;;;;;28.08;14.00;;;14.90;99.90;;;;;;5037970;28;20284;-74
2023/10/20 09:56:46;;;;;;;23.33;13.70;;;14.90;99.90;;;;;;5031337;28;20025;-74
2023/10/20 09:59:23;;;;;;;25.48;13.18;;;14.90;99.90;;;;;;5037598;28;20033;-75
2023/10/20 10:01:52;;;;;;;23.55;13.60;;;14.90;99.90;;;;;;5048039;28;20081;-74
2023/10/20 10:04:36;;;;;;;32.47;13.77;;;14.90;99.90;;;;;;5049009;28;20034;-75
2023/10/20 10:07:03;;;;;;;24.33;14.35;;;14.90;99.90;;;;;;5031556;28;20033;-74
2023/10/20 10:09:43;;;;;;;28.02;15.52;;;14.90;99.90;;;;;;5047767;28;20032;-74
2023/10/20 10:12:16;;;;;;;25.55;13.52;;;14.90;99.90;;;;;;5030644;28;20026;-75
2023/10/20 10:14:42;;;;;;;32.08;13.80;;;15.00;99.90;;;;;;5049601;28;20037;-75
2023/10/20 10:17:11;;;;;;;25.67;13.57;;;15.00;99.90;;;;;;5049200;28;20026;-75
2023/10/20 10:19:49;;;;;;;26.13;13.68;;;15.00;99.90;;;;;;5043025;28;20018;-75
2023/10/20 10:22:16;;;;;;;28.10;13.38;;;15.00;99.90;;;;;;5053418;28;20021;-75
2023/10/20 10:24:54;;;;;;;23.63;13.35;;;15.00;99.90;;;;;;5058155;28;20012;-74
2023/10/20 10:27:24;;;;;;;22.60;12.23;;;15.00;99.90;;;;;;5055448;28;20026;-75
2023/10/20 10:30:05;;;;;;;23.75;12.98;;;15.10;99.90;;;;;;5037638;28;20017;-75
2023/10/20 10:32:32;;;;;;;25.40;12.77;;;15.00;99.90;;;;;;5053439;28;20077;-75
2023/10/20 10:34:58;;;;;;;26.65;13.05;;;15.10;99.90;;;;;;5034992;28;20014;-74
2023/10/20 10:37:30;;;;;;;29.13;14.32;;;15.10;99.90;;;;;;5034862;28;20021;-75
2023/10/20 10:40:13;;;;;;;23.50;12.77;;;15.20;99.90;;;;;;5047367;28;20059;-75
2023/10/20 10:42:43;;;;;;;21.88;12.80;;;15.20;99.90;;;;;;5035464;28;20109;-75
2023/10/20 10:45:31;;;;;;;20.15;12.65;;;15.30;99.90;;;;;;5051186;28;20022;-75
2023/10/20 10:48:10;;;;;;;22.48;11.38;;;15.30;99.90;;;;;;5053530;28;20017;-75
2023/10/20 10:50:41;;;;;;;19.48;11.50;;;15.30;99.90;;;;;;5034687;28;20033;-75
2023/10/20 10:53:07;;;;;;;16.95;10.82;;;15.30;99.90;;;;;;5035487;28;20025;-74
2023/10/20 10:55:36;;;;;;;19.60;11.77;;;15.30;99.90;;;;;;5033754;28;20025;-76
2023/10/20 10:58:06;;;;;;;18.33;11.23;;;15.30;99.90;;;;;;5051808;28;20025;-75
2023/10/20 11:00:34;;;;;;;21.98;12.70;;;15.30;99.90;;;;;;5034265;28;20385;-75
2023/10/20 11:03:01;;;;;;;21.15;11.75;;;15.20;99.90;;;;;;5037811;28;20085;-74
2023/10/20 11:05:28;;;;;;;24.45;12.13;;;15.30;99.90;;;;;;5035826;28;20014;-75
2023/10/20 11:08:04;;;;;;;37.63;16.23;;;15.30;99.90;;;;;;5038750;28;20036;-75
2023/10/20 11:10:36;;;;;;;23.50;12.63;;;15.30;99.90;;;;;;5054385;28;20014;-75
2023/10/20 11:13:10;;;;;;;29.48;12.68;;;15.20;99.90;;;;;;5043770;28;20028;-75
2023/10/20 11:15:39;;;;;;;26.23;11.85;;;15.20;99.90;;;;;;5052918;28;20112;-75
2023/10/20 11:18:06;;;;;;;21.50;11.00;;;15.20;99.90;;;;;;5050769;28;20045;-75
2023/10/20 11:20:37;;;;;;;35.83;13.82;;;15.20;99.90;;;;;;5033230;28;20026;-75
2023/10/20 11:23:07;;;;;;;29.83;12.95;;;15.20;99.90;;;;;;5034293;28;20336;-75
2023/10/20 11:25:36;;;;;;;24.17;12.27;;;15.20;99.90;;;;;;5052618;28;20120;-75
2023/10/20 11:28:02;;;;;;;23.55;11.52;;;15.20;99.90;;;;;;5050087;28;20047;-75
2023/10/20 11:30:32;;;;;;;30.98;14.20;;;15.20;99.90;;;;;;5050235;28;20017;-75
2023/10/20 11:32:58;;;;;;;26.50;11.40;;;15.20;99.90;;;;;;5050610;28;20040;-76
2023/10/20 11:35:25;;;;;;;23.55;12.13;;;15.20;99.90;;;;;;5034243;28;20021;-76
2023/10/20 11:37:51;;;;;;;23.40;11.43;;;15.20;99.90;;;;;;5053213;28;20049;-75
2023/10/20 11:40:18;;;;;;;22.63;11.07;;;15.10;99.90;;;;;;5038597;28;20025;-75
2023/10/20 11:42:46;;;;;;;17.05;10.50;;;15.10;99.90;;;;;;5032897;28;20037;-76
2023/10/20 11:45:12;;;;;;;22.73;11.55;;;15.20;99.90;;;;;;5050602;28;20028;-77
2023/10/20 11:47:41;;;;;;;22.42;11.55;;;15.20;99.90;;;;;;5033944;28;20109;-76
2023/10/20 11:50:08;;;;;;;24.63;11.40;;;15.20;99.90;;;;;;5039990;28;20154;-75
2023/10/20 11:52:36;;;;;;;23.13;12.73;;;15.30;99.90;;;;;;5035500;28;20029;-75
2023/10/20 11:55:02;;;;;;;29.55;13.98;;;15.30;99.90;;;;;;5033686;28;20021;-75
2023/10/20 11:57:27;;;;;;;28.30;14.90;;;15.30;99.90;;;;;;5032763;28;20020;-76
2023/10/20 11:59:53;;;;;;;29.90;14.75;;;15.30;99.90;;;;;;5051491;28;20060;-75
2023/10/20 12:02:18;;;;;;;19.33;11.30;;;15.30;99.90;;;;;;5036405;28;20033;-75
2023/10/20 12:04:46;;;;;;;22.40;11.70;;;15.30;99.90;;;;;;5053009;28;20089;-75
2023/10/20 12:07:12;;;;;;;26.75;12.02;;;15.20;99.90;;;;;;5045679;28;20030;-76
2023/10/20 12:09:40;;;;;;;27.02;11.57;;;15.30;99.90;;;;;;5038730;28;20064;-76
2023/10/20 12:12:06;;;;;;;26.55;12.32;;;15.20;99.90;;;;;;5052259;28;20041;-75
2023/10/20 12:14:32;;;;;;;20.60;11.48;;;15.20;99.90;;;;;;5034230;28;20014;-76
2023/10/20 12:17:03;;;;;;;23.63;12.70;;;15.30;99.90;;;;;;5053448;28;20028;-75
2023/10/20 12:19:28;;;;;;;17.50;9.65;;;15.30;99.90;;;;;;5036549;28;20021;-75
2023/10/20 12:21:54;;;;;;;17.10;10.25;;;15.30;99.90;;;;;;5034867;28;20055;-75
2023/10/20 12:24:22;;;;;;;17.88;9.70;;;15.30;99.90;;;;;;5046871;28;20029;-75
2023/10/20 12:26:48;;;;;;;14.75;9.27;;;15.30;99.90;;;;;;5047117;28;20037;-75
2023/10/20 12:29:19;;;;;;;14.00;9.18;;;15.40;99.90;;;;;;5048782;28;20053;-75
2023/10/20 12:31:45;;;;;;;15.88;10.05;;;15.40;99.90;;;;;;5049130;28;20014;-76
2023/10/20 12:34:13;;;;;;;12.35;9.13;;;15.50;99.90;;;;;;5029755;28;20037;-76
2023/10/20 12:36:42;;;;;;;12.00;9.15;;;15.50;99.90;;;;;;5033756;28;20017;-75
2023/10/20 12:39:17;;;;;;;11.95;8.82;;;15.50;99.90;;;;;;5032089;28;20026;-75
2023/10/20 12:41:43;;;;;;;12.73;8.82;;;15.60;99.90;;;;;;5034411;28;20040;-75
2023/10/20 12:44:10;;;;;;;15.63;9.45;;;15.60;99.90;;;;;;5035244;28;20052;-75
2023/10/20 12:46:39;;;;;;;14.05;9.30;;;15.60;99.90;;;;;;5037584;28;20030;-76
2023/10/20 12:49:06;;;;;;;12.65;8.20;;;15.70;99.90;;;;;;5038621;28;20021;-76
2023/10/20 12:51:34;;;;;;;11.05;7.63;;;15.60;99.90;;;;;;5051194;28;20021;-75
2023/10/20 12:54:01;;;;;;;13.82;8.48;;;15.60;99.90;;;;;;5034915;28;20043;-75
2023/10/20 12:56:27;;;;;;;12.27;8.38;;;15.60;99.90;;;;;;5034205;28;20049;-75
2023/10/20 12:58:55;;;;;;;13.45;9.38;;;15.50;99.90;;;;;;5034054;28;20036;-76
2023/10/20 13:01:25;;;;;;;11.82;8.48;;;15.50;99.90;;;;;;5050121;28;20032;-75
2023/10/20 13:03:53;;;;;;;11.90;8.90;;;15.50;99.90;;;;;;5052231;28;20080;-75
2023/10/20 13:06:18;;;;;;;15.65;9.23;;;15.40;99.90;;;;;;5034812;28;20032;-76
2023/10/20 13:08:46;;;;;;;14.40;9.35;;;15.40;99.90;;;;;;5049350;28;20040;-77
2023/10/20 13:11:13;;;;;;;11.85;8.98;;;15.50;99.90;;;;;;5051016;28;20588;-75